createdAt,value
2023-11-15T00:27:54.699Z,7.93
2023-11-15T00:42:54.697Z,8.06
2023-11-15T00:57:54.667Z,8.25
2023-11-15T01:07:54.676Z,8.37
2023-11-15T01:52:54.620Z,7.87
2023-11-15T01:57:54.626Z,8
2023-11-15T02:02:54.701Z,8
2023-11-15T02:12:54.621Z,8.5
2023-11-15T02:17:54.643Z,8.62
2023-11-15T02:32:54.670Z,8.5
2023-11-15T02:37:54.611Z,8.5
2023-11-15T02:47:54.619Z,8.43
2023-11-15T03:12:54.551Z,8.37
2023-11-15T03:17:54.589Z,8.56
2023-11-15T03:27:54.532Z,8.56
2023-11-15T03:32:54.610Z,8.62
2023-11-15T03:37:54.573Z,8.56
2023-11-15T03:42:54.552Z,8.43
2023-11-15T03:47:54.592Z,8.5
2023-11-15T03:52:54.513Z,8.37
2023-11-15T03:57:54.515Z,8.5
2023-11-15T04:02:54.557Z,8.56
2023-11-15T04:07:54.525Z,8.5
2023-11-15T04:12:54.498Z,8.56
2023-11-15T04:17:54.550Z,8.5
2023-11-15T04:22:54.512Z,8.18
2023-11-15T04:27:54.489Z,8.06
2023-11-15T04:32:54.510Z,8
2023-11-15T04:42:54.507Z,7.75
2023-11-15T04:52:56.893Z,7.81
2023-11-15T04:57:54.472Z,7.68
2023-11-15T05:02:54.542Z,7.56
2023-11-15T05:07:54.451Z,7.56
2023-11-15T05:12:54.462Z,7.56
2023-11-15T05:17:54.459Z,7.56
2023-11-15T05:22:54.441Z,7.5
2023-11-15T05:27:54.490Z,7.5
2023-11-15T05:32:54.514Z,7.37
2023-11-15T05:37:54.455Z,7.56
2023-11-15T05:42:54.450Z,7.68
2023-11-15T05:47:54.468Z,7.56
2023-11-15T05:52:54.420Z,7.5
2023-11-15T05:57:54.460Z,7.56
2023-11-15T06:02:54.476Z,7.5
2023-11-15T06:07:54.418Z,7.43
2023-11-15T06:12:54.419Z,7.25
2023-11-15T06:17:54.589Z,7.25
2023-11-15T06:22:54.424Z,7.68
2023-11-15T06:27:54.388Z,7.62
2023-11-15T06:32:54.402Z,7.62
2023-11-15T06:37:54.442Z,7.62
2023-11-15T06:42:54.395Z,7.56
2023-11-15T06:47:54.484Z,7.75
2023-11-15T06:57:54.378Z,8.06
2023-11-15T07:02:54.611Z,8.18
2023-11-15T07:07:54.348Z,8.12
2023-11-15T07:12:55.931Z,8.31
2023-11-15T07:17:54.357Z,8.18
2023-11-15T07:22:54.352Z,8.31
2023-11-15T07:27:54.365Z,8.18
2023-11-15T07:32:54.391Z,8.37
2023-11-15T07:37:54.326Z,8.56
2023-11-15T07:42:54.329Z,8.56
2023-11-15T07:47:54.403Z,8.56
2023-11-15T07:52:54.314Z,8.5
2023-11-15T07:57:54.326Z,8.43
2023-11-15T08:02:54.603Z,8.5
2023-11-15T08:07:54.306Z,8.56
2023-11-15T08:12:54.315Z,8.81
2023-11-15T08:17:54.329Z,8.75
2023-11-15T08:22:54.282Z,8.87
2023-11-15T08:27:54.290Z,9
2023-11-15T08:32:54.318Z,9.06
2023-11-15T08:37:54.270Z,8.75
2023-11-15T08:42:54.265Z,8.81
2023-11-15T08:47:54.379Z,8.93
2023-11-15T08:52:54.267Z,9.18
2023-11-15T08:57:54.252Z,9.25
2023-11-15T09:02:54.301Z,9.31
2023-11-15T09:07:54.240Z,9.56
2023-11-15T09:12:54.218Z,9.25
2023-11-15T09:17:54.284Z,9.37
2023-11-15T09:22:54.231Z,9.75
2023-11-15T09:27:54.257Z,9.81
2023-11-15T09:32:54.392Z,9.81
2023-11-15T09:37:55.725Z,10.12
2023-11-15T09:42:54.209Z,9.87
2023-11-15T09:47:54.438Z,9.81
2023-11-15T09:52:54.205Z,9.75
2023-11-15T09:57:54.209Z,9.43
2023-11-15T10:02:54.413Z,9
2023-11-15T10:07:54.214Z,8.68
2023-11-15T10:12:54.201Z,9.31
2023-11-15T10:17:54.263Z,9.37
2023-11-15T10:22:54.225Z,9.68
2023-11-15T10:27:54.169Z,9.81
2023-11-15T10:32:54.193Z,10.06
2023-11-15T10:37:54.170Z,9.43
2023-11-15T10:42:54.277Z,9.18
2023-11-15T10:47:54.210Z,9.93
2023-11-15T10:52:54.145Z,10.62
2023-11-15T10:57:54.138Z,10.87
2023-11-15T11:02:54.205Z,10.12
2023-11-15T11:07:54.133Z,10.06
2023-11-15T11:12:54.132Z,10.12
2023-11-15T11:17:54.165Z,10.06
2023-11-15T11:22:54.143Z,9.62
2023-11-15T11:27:54.100Z,8.93
2023-11-15T11:32:54.128Z,8.87
2023-11-15T11:37:54.098Z,8.68
2023-11-15T11:42:54.194Z,9.18
2023-11-15T11:47:54.178Z,8.81
2023-11-15T11:52:54.071Z,9.25
2023-11-15T11:57:54.076Z,8.93
2023-11-15T12:02:58.737Z,8.56
2023-11-15T12:07:54.104Z,8.62
2023-11-15T12:37:54.040Z,8
2023-11-15T12:42:54.020Z,8.43
2023-11-15T13:12:55.891Z,8.18
2023-11-15T13:37:53.974Z,8.56
2023-11-15T13:42:53.972Z,8.75
2023-11-15T13:52:53.963Z,8.68
2023-11-15T14:02:53.986Z,8
2023-11-15T14:07:53.940Z,8.18
2023-11-15T14:17:53.956Z,8.5
2023-11-15T14:42:53.910Z,8.18
2023-11-15T14:47:54.020Z,7.93
2023-11-15T14:52:53.896Z,7.75
2023-11-15T14:57:53.896Z,7.5
2023-11-15T15:02:53.962Z,7.62
2023-11-15T15:07:53.923Z,7.68
2023-11-15T15:12:53.905Z,7.37
2023-11-15T15:17:53.929Z,7.37
2023-11-15T15:22:53.918Z,7.12
2023-11-15T15:42:53.852Z,6.68
2023-11-15T16:02:53.916Z,6.31
2023-11-15T16:22:53.826Z,6.37
2023-11-15T16:27:53.925Z,6.12
2023-11-15T16:32:53.864Z,6
2023-11-15T16:37:53.823Z,6.12
2023-11-15T16:47:53.858Z,6.56
2023-11-15T16:52:53.799Z,6.5
2023-11-15T16:57:53.798Z,6.31
2023-11-15T17:27:54.784Z,6.12
2023-11-15T17:37:53.766Z,6.37
2023-11-15T18:02:53.792Z,6.5
2023-11-15T18:07:53.743Z,6.37
2023-11-15T18:12:53.797Z,6.37
2023-11-15T18:17:53.765Z,6.43
2023-11-15T18:22:53.733Z,6.37
2023-11-15T18:27:53.731Z,6.31
2023-11-15T18:32:53.844Z,6.18
2023-11-15T18:37:56.000Z,6
2023-11-15T18:42:53.732Z,6
2023-11-15T18:47:53.820Z,5.93
2023-11-15T18:52:53.713Z,5.81
2023-11-15T18:57:53.723Z,5.75
2023-11-15T19:02:54.072Z,5.62
2023-11-15T19:07:53.705Z,5.56
2023-11-15T19:12:53.690Z,5.43
2023-11-15T19:17:53.738Z,5.62
2023-11-15T19:22:53.753Z,5.62
2023-11-15T19:27:53.697Z,5.93
2023-11-15T19:32:53.730Z,6.06
2023-11-15T19:37:53.700Z,6.25
2023-11-15T19:42:53.681Z,6.18
2023-11-15T19:47:53.777Z,6.06
2023-11-15T19:52:53.653Z,6.12
2023-11-15T19:57:53.686Z,6
2023-11-15T20:02:53.853Z,6.12
2023-11-15T20:07:53.677Z,5.93
2023-11-15T20:12:53.658Z,6.06
2023-11-15T20:17:53.759Z,5.93
2023-11-15T20:27:53.637Z,5.93
2023-11-15T20:32:55.548Z,6
2023-11-15T20:37:53.652Z,6.06
2023-11-15T20:42:53.614Z,6
2023-11-15T20:47:53.735Z,5.81
2023-11-15T20:52:53.642Z,5.81
2023-11-15T20:57:53.633Z,5.75
2023-11-15T21:02:53.812Z,5.68
2023-11-15T21:07:53.633Z,5.75
2023-11-15T21:12:53.632Z,5.68
2023-11-15T21:17:53.640Z,5.68
2023-11-15T21:22:53.617Z,5.5
2023-11-15T21:27:53.631Z,5.56
2023-11-15T21:32:53.640Z,5.5
2023-11-15T21:37:53.623Z,5.37
2023-11-15T21:42:53.604Z,5.43
2023-11-15T21:47:53.616Z,5.31
2023-11-15T21:52:53.620Z,5.31
2023-11-15T21:57:53.584Z,5.5
2023-11-15T22:02:53.611Z,5.43
2023-11-15T22:07:53.572Z,5.56
2023-11-15T22:12:53.598Z,5.62
2023-11-15T22:17:53.634Z,5.62
2023-11-15T22:22:53.568Z,5.62
2023-11-15T22:27:53.550Z,5.37
2023-11-15T22:32:53.575Z,5.06
2023-11-15T22:37:53.552Z,5
2023-11-15T22:42:53.541Z,4.75
2023-11-15T22:47:53.579Z,4.81
2023-11-15T22:52:53.548Z,4.81
2023-11-15T22:57:53.569Z,4.62
2023-11-15T23:02:53.636Z,4.62
2023-11-15T23:07:53.540Z,4.81
2023-11-15T23:12:53.526Z,4.68
2023-11-15T23:17:53.531Z,5.06
2023-11-15T23:22:53.555Z,5.06
2023-11-15T23:27:53.543Z,5.31
2023-11-15T23:32:53.667Z,5.06
2023-11-15T23:37:53.534Z,5
2023-11-15T23:42:53.526Z,4.87
2023-11-15T23:47:53.567Z,5.06
2023-11-15T23:52:53.532Z,5.31
2023-11-15T23:57:53.497Z,5.31
